Time;durP1;ratioP1;P1;durP2;ratioP2;P2;SDS_P1;SDS_P2;PMS_P1;PMS_P2;Temp;Humidity;BMP_temperature;BMP_pressure;BME280_temperature;BME280_humidity;BME280_pressure;Samples;Min_cycle;Max_cycle;Signal;HPM_P1;HPM_P2
2023/05/18 00:00:34;;;;;;;9.63;2.78;;;8.90;96.50;;;;;;5047963;28;20090;-55
2023/05/18 00:03:02;;;;;;;16.23;3.80;;;8.90;99.90;;;;;;5047314;28;20040;-56
2023/05/18 00:05:32;;;;;;;17.20;3.33;;;8.80;99.90;;;;;;5049109;28;20128;-55
2023/05/18 00:08:01;;;;;;;15.23;3.08;;;8.80;99.90;;;;;;5050299;28;20029;-55
2023/05/18 00:10:27;;;;;;;10.13;2.50;;;8.90;99.90;;;;;;5046968;28;20033;-55
2023/05/18 00:12:52;;;;;;;13.68;2.90;;;8.80;99.90;;;;;;5045859;28;20052;-56
2023/05/18 00:15:18;;;;;;;8.15;2.70;;;8.80;99.90;;;;;;5049019;28;20124;-56
2023/05/18 00:17:44;;;;;;;12.00;2.70;;;8.80;99.90;;;;;;5048936;28;20056;-56
2023/05/18 00:20:10;;;;;;;12.55;2.72;;;8.70;99.90;;;;;;5043513;28;20036;-55
2023/05/18 00:22:38;;;;;;;11.20;2.90;;;8.80;99.90;;;;;;5046067;28;20848;-56
2023/05/18 00:25:04;;;;;;;8.82;2.92;;;8.70;99.90;;;;;;5045878;28;20037;-56
2023/05/18 00:27:30;;;;;;;11.15;2.78;;;8.70;99.90;;;;;;5047808;28;20514;-55
2023/05/18 00:29:55;;;;;;;11.07;2.88;;;8.70;99.90;;;;;;5051450;28;20044;-56
2023/05/18 00:32:21;;;;;;;11.98;2.92;;;8.80;99.90;;;;;;5047841;28;20060;-56
2023/05/18 00:34:47;;;;;;;10.15;2.40;;;8.90;99.90;;;;;;5049774;28;20036;-56
2023/05/18 00:37:12;;;;;;;9.63;3.03;;;8.80;99.90;;;;;;5047869;28;20094;-55
2023/05/18 00:39:38;;;;;;;11.77;2.70;;;8.80;99.90;;;;;;5050416;28;20078;-56
2023/05/18 00:42:04;;;;;;;13.93;2.85;;;8.70;99.90;;;;;;5046451;28;20083;-56
2023/05/18 00:44:29;;;;;;;9.85;2.92;;;8.50;99.90;;;;;;5044366;28;20169;-55
2023/05/18 00:46:55;;;;;;;10.30;2.75;;;8.50;99.90;;;;;;5042498;28;20511;-55
2023/05/18 00:49:20;;;;;;;15.18;3.22;;;8.40;99.90;;;;;;5051843;28;20699;-55
2023/05/18 00:51:47;;;;;;;13.13;2.85;;;8.30;99.90;;;;;;5046986;28;20044;-56
2023/05/18 00:54:13;;;;;;;12.52;2.80;;;8.30;99.90;;;;;;5046933;28;20041;-55
2023/05/18 00:56:45;;;;;;;11.05;2.90;;;8.40;99.90;;;;;;5047652;28;20037;-55
2023/05/18 00:59:11;;;;;;;8.60;2.85;;;8.30;99.90;;;;;;5045079;28;20495;-55
2023/05/18 01:01:42;;;;;;;11.68;2.50;;;8.30;99.90;;;;;;5047441;28;20028;-55
2023/05/18 01:04:09;;;;;;;9.77;2.92;;;8.40;99.90;;;;;;5052927;28;20565;-56
2023/05/18 01:06:35;;;;;;;10.77;2.88;;;8.40;99.90;;;;;;5052917;28;20266;-55
2023/05/18 01:09:03;;;;;;;12.93;3.03;;;8.30;99.90;;;;;;5053747;28;20510;-56
2023/05/18 01:11:43;;;;;;;9.45;3.15;;;8.40;99.90;;;;;;5050966;28;20087;-56
2023/05/18 01:14:18;;;;;;;11.25;2.88;;;8.40;99.90;;;;;;5049772;28;20575;-56
2023/05/18 01:17:23;;;;;;;11.00;3.38;;;8.40;99.90;;;;;;5053444;28;20045;-56
2023/05/18 01:19:59;;;;;;;15.38;3.70;;;8.40;99.90;;;;;;5055178;28;20025;-56
2023/05/18 01:22:56;;;;;;;11.43;2.63;;;8.40;99.90;;;;;;5053864;28;20225;-56
2023/05/18 01:25:45;;;;;;;9.80;3.22;;;8.40;99.90;;;;;;5051295;28;20456;-56
2023/05/18 01:28:16;;;;;;;15.98;3.30;;;8.50;99.90;;;;;;5048947;28;20606;-56
2023/05/18 01:30:42;;;;;;;9.25;2.47;;;8.40;99.90;;;;;;5052797;28;20040;-56
2023/05/18 01:33:09;;;;;;;10.05;3.50;;;8.20;99.90;;;;;;5051129;28;20107;-55
2023/05/18 01:35:36;;;;;;;9.60;2.97;;;8.20;99.90;;;;;;5050829;28;20835;-55
2023/05/18 01:38:02;;;;;;;11.90;3.40;;;8.20;99.90;;;;;;5053191;28;20446;-55
2023/05/18 01:40:33;;;;;;;10.70;3.20;;;8.30;99.90;;;;;;5049370;28;20720;-56
2023/05/18 01:43:09;;;;;;;10.98;3.25;;;8.10;1.00;;;;;;5052414;28;20059;-55
2023/05/18 01:45:39;;;;;;;9.40;3.10;;;8.10;1.00;;;;;;5053996;28;20106;-56
2023/05/18 01:48:08;;;;;;;14.00;3.38;;;8.20;1.00;;;;;;5050887;28;20086;-56
2023/05/18 01:50:38;;;;;;;13.23;3.25;;;8.20;1.00;;;;;;5053047;28;20506;-56
2023/05/18 01:53:11;;;;;;;10.70;3.13;;;8.20;1.00;;;;;;5050413;28;20412;-56
2023/05/18 01:55:38;;;;;;;11.17;3.47;;;8.10;1.00;;;;;;5052615;28;20087;-55
2023/05/18 01:58:06;;;;;;;13.77;3.78;;;7.90;1.00;;;;;;5061608;28;20064;-55
2023/05/18 02:00:33;;;;;;;11.88;3.20;;;8.10;1.00;;;;;;5056570;28;20052;-56
2023/05/18 02:02:58;;;;;;;11.25;3.67;;;7.90;1.00;;;;;;5048583;28;20052;-55
2023/05/18 02:05:24;;;;;;;10.95;3.50;;;7.90;1.00;;;;;;5057469;28;20198;-56
2023/05/18 02:07:50;;;;;;;11.07;3.85;;;7.90;1.00;;;;;;5049917;28;20071;-56
2023/05/18 02:10:15;;;;;;;9.52;3.10;;;8.00;1.00;;;;;;5045410;28;20182;-56
2023/05/18 02:12:41;;;;;;;11.48;3.40;;;8.00;1.00;;;;;;5049275;28;20072;-56
2023/05/18 02:15:07;;;;;;;9.90;3.33;;;8.00;1.00;;;;;;5043558;28;20792;-57
2023/05/18 02:17:37;;;;;;;14.52;3.70;;;8.00;1.00;;;;;;5051193;28;20037;-56
2023/05/18 02:20:08;;;;;;;9.95;3.58;;;7.90;1.00;;;;;;5045920;28;20033;-56
2023/05/18 02:22:35;;;;;;;14.48;3.72;;;7.70;1.00;;;;;;5047948;28;20389;-55
2023/05/18 02:25:01;;;;;;;9.93;3.72;;;7.60;1.00;;;;;;5044366;28;20040;-55
2023/05/18 02:27:27;;;;;;;13.73;3.95;;;7.70;1.00;;;;;;5052655;28;20037;-56
2023/05/18 02:29:53;;;;;;;13.13;4.40;;;7.70;1.00;;;;;;5048697;28;20102;-56
2023/05/18 02:32:19;;;;;;;18.45;4.40;;;7.80;1.00;;;;;;5050326;28;20637;-55
2023/05/18 02:34:45;;;;;;;12.90;4.00;;;7.80;1.00;;;;;;5046001;28;20111;-56
2023/05/18 02:37:12;;;;;;;10.32;4.15;;;7.70;1.00;;;;;;5051357;28;20033;-55
2023/05/18 02:39:38;;;;;;;12.43;4.18;;;7.80;1.00;;;;;;5046062;28;20496;-56
2023/05/18 02:42:04;;;;;;;11.55;4.22;;;7.50;1.00;;;;;;5049218;28;20036;-56
2023/05/18 02:44:30;;;;;;;14.25;4.43;;;7.30;1.00;;;;;;5054086;28;20155;-56
2023/05/18 02:46:56;;;;;;;9.00;3.88;;;7.30;1.00;;;;;;5046807;28;20091;-56
2023/05/18 02:49:21;;;;;;;11.80;4.20;;;7.20;1.00;;;;;;5052426;28;20037;-56
2023/05/18 02:51:47;;;;;;;12.52;4.13;;;7.20;1.00;;;;;;5053719;28;20028;-56
2023/05/18 02:54:13;;;;;;;12.65;4.18;;;7.10;1.00;;;;;;5052872;28;20040;-56
2023/05/18 02:56:40;;;;;;;12.93;4.20;;;7.10;1.00;;;;;;5055238;28;20500;-56
2023/05/18 02:59:06;;;;;;;10.80;3.90;;;7.00;1.00;;;;;;5044127;28;20064;-56
2023/05/18 03:01:33;;;;;;;11.65;3.88;;;7.00;1.00;;;;;;5051959;28;20182;-56
2023/05/18 03:03:59;;;;;;;10.27;3.90;;;7.10;1.00;;;;;;5050580;28;20039;-55
2023/05/18 03:06:25;;;;;;;14.90;4.38;;;7.10;1.00;;;;;;5046544;28;20520;-55
2023/05/18 03:08:54;;;;;;;12.25;4.30;;;7.00;1.00;;;;;;5055872;28;20039;-56
2023/05/18 03:11:20;;;;;;;9.48;4.60;;;7.10;1.00;;;;;;5052920;28;20418;-56
2023/05/18 03:13:46;;;;;;;9.48;4.25;;;7.20;1.00;;;;;;5050716;28;20040;-55
2023/05/18 03:16:12;;;;;;;10.70;5.13;;;7.00;1.00;;;;;;5047729;28;20036;-56
2023/05/18 03:18:38;;;;;;;17.83;4.20;;;7.10;1.00;;;;;;5050808;28;20025;-56
2023/05/18 03:21:04;;;;;;;12.30;4.70;;;7.10;1.00;;;;;;5049658;28;20060;-55
2023/05/18 03:23:30;;;;;;;15.63;4.40;;;7.00;1.00;;;;;;5053205;28;20029;-56
2023/05/18 03:25:56;;;;;;;16.23;5.18;;;7.20;1.00;;;;;;5054615;28;20025;-55
2023/05/18 03:28:21;;;;;;;11.90;4.57;;;7.30;1.00;;;;;;5048502;28;20453;-55
2023/05/18 03:30:47;;;;;;;16.23;5.45;;;7.10;1.00;;;;;;5048507;28;20300;-56
2023/05/18 03:33:13;;;;;;;14.13;4.95;;;7.00;1.00;;;;;;5047103;28;20715;-55
2023/05/18 03:35:39;;;;;;;23.00;5.22;;;7.10;1.00;;;;;;5050366;28;20024;-56
2023/05/18 03:38:06;;;;;;;17.45;4.88;;;7.30;1.00;;;;;;5047696;28;20024;-55
2023/05/18 03:40:31;;;;;;;16.63;4.60;;;7.30;1.00;;;;;;5050396;28;20973;-55
2023/05/18 03:42:57;;;;;;;11.98;4.75;;;7.10;1.00;;;;;;5053571;28;20061;-55
2023/05/18 03:45:23;;;;;;;10.57;4.90;;;7.30;1.00;;;;;;5045291;28;20140;-56
2023/05/18 03:47:49;;;;;;;16.60;4.90;;;7.10;1.00;;;;;;5043239;28;20522;-56
2023/05/18 03:50:15;;;;;;;14.35;4.82;;;7.10;1.00;;;;;;5045974;28;20094;-55
2023/05/18 03:52:43;;;;;;;14.07;5.32;;;7.30;1.00;;;;;;5046682;28;20071;-55
2023/05/18 03:55:09;;;;;;;11.98;5.32;;;7.20;1.00;;;;;;5051415;28;20500;-56
2023/05/18 03:57:35;;;;;;;17.48;5.38;;;7.20;1.00;;;;;;5052716;28;20044;-56
2023/05/18 04:00:12;;;;;;;15.18;5.40;;;7.20;1.00;;;;;;5054041;28;20045;-56
2023/05/18 04:02:38;;;;;;;13.25;5.07;;;7.20;1.00;;;;;;5049013;28;20039;-56
2023/05/18 04:05:05;;;;;;;17.30;5.60;;;7.30;1.00;;;;;;5045829;28;20561;-55
2023/05/18 04:07:31;;;;;;;12.57;4.95;;;7.30;1.00;;;;;;5051163;28;20094;-56
2023/05/18 04:09:56;;;;;;;11.68;4.82;;;7.40;1.00;;;;;;5047282;28;20049;-55
2023/05/18 04:12:22;;;;;;;15.90;5.20;;;7.40;1.00;;;;;;5046661;28;20040;-55
2023/05/18 04:14:48;;;;;;;15.43;5.25;;;7.40;1.00;;;;;;5047263;28;20045;-56
2023/05/18 04:17:21;;;;;;;11.23;5.60;;;7.30;1.00;;;;;;5050362;28;20066;-55
2023/05/18 04:19:47;;;;;;;14.65;5.35;;;7.30;1.00;;;;;;5045552;28;20520;-60
2023/05/18 04:22:13;;;;;;;13.90;5.85;;;7.30;1.00;;;;;;5044709;28;20029;-60
2023/05/18 04:24:44;;;;;;;14.25;5.57;;;7.40;1.00;;;;;;5046170;28;20032;-60
2023/05/18 04:27:10;;;;;;;13.38;5.93;;;7.30;1.00;;;;;;5051515;28;20037;-59
2023/05/18 04:29:37;;;;;;;16.15;5.72;;;7.30;1.00;;;;;;5052283;28;20161;-59
2023/05/18 04:32:06;;;;;;;15.80;5.70;;;7.20;1.00;;;;;;5046691;28;20056;-59
2023/05/18 04:34:34;;;;;;;18.13;6.10;;;7.20;1.00;;;;;;5047656;28;20036;-60
2023/05/18 04:37:01;;;;;;;13.15;6.00;;;7.50;1.00;;;;;;5047232;28;20045;-60
2023/05/18 04:39:27;;;;;;;19.35;6.10;;;7.40;1.00;;;;;;5051639;28;20029;-60
2023/05/18 04:41:57;;;;;;;11.85;6.10;;;7.50;1.00;;;;;;5049549;28;20059;-60
2023/05/18 04:44:26;;;;;;;17.15;7.10;;;7.70;1.00;;;;;;5049967;28;20036;-60
2023/05/18 04:46:53;;;;;;;11.73;6.47;;;7.80;1.00;;;;;;5043098;28;20086;-60
2023/05/18 04:49:22;;;;;;;16.33;6.45;;;7.80;1.00;;;;;;5052702;28;20396;-59
2023/05/18 04:51:57;;;;;;;17.75;6.75;;;7.70;1.00;;;;;;5053391;28;20037;-60
2023/05/18 04:54:29;;;;;;;17.77;6.22;;;7.80;1.00;;;;;;5045086;28;20496;-60
2023/05/18 04:56:56;;;;;;;16.63;6.43;;;8.00;1.00;;;;;;5046008;28;20488;-60
2023/05/18 04:59:27;;;;;;;17.85;6.72;;;8.00;1.00;;;;;;5044088;28;20455;-60
2023/05/18 05:01:53;;;;;;;20.85;6.60;;;8.10;1.00;;;;;;5052945;28;20159;-61
2023/05/18 05:04:20;;;;;;;12.95;6.57;;;8.50;1.00;;;;;;5051447;28;20828;-61
2023/05/18 05:06:46;;;;;;;13.02;6.07;;;8.60;1.00;;;;;;5048348;28;20052;-61
2023/05/18 05:09:13;;;;;;;15.70;6.22;;;8.30;1.00;;;;;;5052874;28;20121;-61
2023/05/18 05:11:39;;;;;;;16.13;6.35;;;8.60;1.00;;;;;;5050728;28;20327;-61
2023/05/18 05:14:05;;;;;;;13.93;6.13;;;8.80;1.00;;;;;;5051655;28;20032;-61
2023/05/18 05:16:30;;;;;;;12.02;5.25;;;8.70;1.00;;;;;;5047833;28;20041;-61
2023/05/18 05:18:56;;;;;;;15.48;5.97;;;8.70;99.90;;;;;;5051799;28;20029;-61
2023/05/18 05:21:21;;;;;;;11.50;5.25;;;8.80;1.00;;;;;;5048132;28;20108;-61
2023/05/18 05:23:47;;;;;;;12.60;5.35;;;8.90;99.90;;;;;;5050832;28;20047;-61
2023/05/18 05:26:12;;;;;;;17.77;5.85;;;8.80;1.00;;;;;;5049699;28;20545;-61
2023/05/18 05:28:38;;;;;;;12.48;5.28;;;9.10;1.00;;;;;;5051236;28;20032;-61
2023/05/18 05:31:04;;;;;;;11.27;5.65;;;9.30;99.90;;;;;;5053894;28;20161;-61
2023/05/18 05:33:30;;;;;;;13.88;5.68;;;9.40;99.90;;;;;;5047433;28;20032;-61
2023/05/18 05:35:55;;;;;;;13.27;5.78;;;9.40;99.90;;;;;;5047158;28;20040;-61
2023/05/18 05:38:21;;;;;;;17.73;6.47;;;9.30;99.90;;;;;;5047270;28;20056;-61
2023/05/18 05:40:46;;;;;;;13.98;5.95;;;9.00;99.90;;;;;;5049171;28;20068;-61
2023/05/18 05:43:12;;;;;;;13.15;6.00;;;9.10;99.90;;;;;;5047621;28;20017;-61
2023/05/18 05:45:38;;;;;;;15.95;5.30;;;9.40;99.90;;;;;;5050487;28;20063;-61
2023/05/18 05:48:04;;;;;;;12.35;5.65;;;9.70;99.90;;;;;;5046318;28;20029;-60
2023/05/18 05:50:30;;;;;;;15.70;5.43;;;10.00;99.90;;;;;;5044649;28;20033;-61
2023/05/18 05:52:56;;;;;;;17.83;5.50;;;10.00;99.90;;;;;;5053137;28;20043;-61
2023/05/18 05:55:22;;;;;;;13.02;4.90;;;10.20;1.00;;;;;;5049005;28;20041;-61
2023/05/18 05:57:47;;;;;;;11.10;5.22;;;10.20;44.20;;;;;;5046183;28;20047;-61
2023/05/18 06:00:13;;;;;;;17.65;5.30;;;9.80;99.90;;;;;;5050333;28;20055;-61
2023/05/18 06:02:39;;;;;;;14.13;5.28;;;10.00;43.80;;;;;;5049649;28;20029;-61
2023/05/18 06:05:06;;;;;;;12.88;4.88;;;9.80;99.90;;;;;;5049882;28;20036;-60
2023/05/18 06:07:32;;;;;;;12.55;4.97;;;9.80;99.90;;;;;;5048331;28;20036;-61
2023/05/18 06:09:57;;;;;;;15.77;5.60;;;9.70;99.90;;;;;;5054967;28;20613;-61
2023/05/18 06:12:23;;;;;;;13.00;5.20;;;9.80;41.10;;;;;;5048044;28;20155;-61
2023/05/18 06:14:51;;;;;;;14.00;4.97;;;9.90;45.10;;;;;;5041900;28;20086;-61
2023/05/18 06:17:17;;;;;;;14.77;5.05;;;10.00;71.50;;;;;;5053174;28;20047;-61
2023/05/18 06:19:42;;;;;;;14.90;4.57;;;10.20;1.00;;;;;;5055566;28;20037;-61
2023/05/18 06:22:08;;;;;;;11.70;5.15;;;10.40;1.00;;;;;;5050408;28;20029;-60
2023/05/18 06:24:33;;;;;;;10.57;5.10;;;10.20;1.00;;;;;;5055005;28;20090;-61
2023/05/18 06:26:59;;;;;;;19.70;6.22;;;10.10;1.00;;;;;;5057554;28;20028;-61
2023/05/18 06:29:25;;;;;;;17.90;5.85;;;10.10;1.00;;;;;;5049724;28;20064;-61
2023/05/18 06:31:50;;;;;;;20.23;6.68;;;9.80;1.00;;;;;;5056782;28;20519;-61
2023/05/18 06:34:16;;;;;;;20.15;6.38;;;10.00;1.00;;;;;;5049008;28;20033;-61
2023/05/18 06:36:41;;;;;;;18.33;6.50;;;10.30;1.00;;;;;;5055265;28;20059;-61
2023/05/18 06:39:07;;;;;;;16.13;6.30;;;10.20;1.00;;;;;;5047540;28;20726;-61
2023/05/18 06:41:33;;;;;;;15.55;5.63;;;10.30;1.00;;;;;;5047637;28;20041;-63
2023/05/18 06:44:00;;;;;;;18.05;5.50;;;10.60;99.90;;;;;;5058727;28;20094;-63
2023/05/18 06:46:26;;;;;;;12.43;4.38;;;10.30;99.90;;;;;;5052836;28;20120;-62
2023/05/18 06:48:52;;;;;;;15.35;4.72;;;10.20;99.90;;;;;;5050473;28;20487;-62
2023/05/18 06:51:18;;;;;;;16.95;5.07;;;10.40;99.90;;;;;;5054572;28;20475;-62
2023/05/18 06:53:43;;;;;;;14.10;4.75;;;10.40;99.90;;;;;;5060985;28;20056;-64
2023/05/18 06:56:12;;;;;;;14.52;4.82;;;10.60;99.90;;;;;;5055401;28;20131;-62
2023/05/18 06:58:40;;;;;;;19.48;4.70;;;10.40;99.90;;;;;;5048382;28;20029;-62
2023/05/18 07:01:05;;;;;;;12.90;4.60;;;10.80;99.90;;;;;;5053437;28;20382;-62
2023/05/18 07:03:31;;;;;;;10.75;4.38;;;11.00;99.90;;;;;;5039453;28;20035;-62
2023/05/18 07:05:57;;;;;;;12.63;4.15;;;11.20;1.00;;;;;;5054322;28;20086;-62
2023/05/18 07:08:23;;;;;;;14.45;4.13;;;11.30;1.00;;;;;;5057161;28;20029;-62
2023/05/18 07:10:50;;;;;;;10.80;4.50;;;11.50;1.00;;;;;;5055193;28;20090;-62
2023/05/18 07:13:15;;;;;;;16.40;5.35;;;11.20;1.00;;;;;;5045677;28;20076;-62
2023/05/18 07:15:41;;;;;;;13.45;4.88;;;10.90;99.00;;;;;;5054203;28;20048;-63
2023/05/18 07:18:06;;;;;;;13.32;5.25;;;10.90;50.90;;;;;;5054910;28;20123;-62
2023/05/18 07:20:32;;;;;;;13.38;5.03;;;10.90;26.70;;;;;;5036096;28;20064;-63
2023/05/18 07:22:57;;;;;;;15.88;5.05;;;11.30;99.90;;;;;;5048467;28;20881;-62
2023/05/18 07:25:23;;;;;;;16.75;5.10;;;11.20;1.00;;;;;;5061186;28;20044;-62
2023/05/18 07:27:53;;;;;;;15.55;5.03;;;11.30;1.00;;;;;;5053178;28;20036;-62
2023/05/18 07:30:19;;;;;;;13.98;4.50;;;11.40;1.00;;;;;;5037116;28;20041;-62
2023/05/18 07:32:45;;;;;;;16.95;4.35;;;11.20;99.90;;;;;;5050818;28;20114;-62
2023/05/18 07:35:11;;;;;;;12.13;4.63;;;11.30;1.00;;;;;;5053900;28;20075;-62
2023/05/18 07:37:36;;;;;;;13.25;4.47;;;11.40;99.90;;;;;;5055986;28;20396;-62
2023/05/18 07:40:03;;;;;;;12.88;4.55;;;11.60;99.90;;;;;;5054858;28;20236;-62
2023/05/18 07:42:29;;;;;;;14.52;4.40;;;11.70;99.90;;;;;;5054620;28;20115;-63
2023/05/18 07:44:55;;;;;;;22.20;9.90;;;12.10;99.90;;;;;;5057922;28;20399;-63
2023/05/18 07:47:21;;;;;;;14.38;4.22;;;12.00;1.00;;;;;;5055311;28;20046;-62
2023/05/18 07:49:47;;;;;;;11.77;4.07;;;12.10;99.90;;;;;;5051241;28;20025;-63
2023/05/18 07:52:12;;;;;;;12.90;3.85;;;12.50;1.00;;;;;;5049650;28;20122;-62
2023/05/18 07:54:38;;;;;;;10.90;3.78;;;12.60;99.90;;;;;;5050712;28;20067;-63
2023/05/18 07:57:04;;;;;;;15.68;4.10;;;12.50;99.90;;;;;;5052567;28;20029;-62
2023/05/18 07:59:30;;;;;;;12.35;3.90;;;12.30;10.50;;;;;;5057478;28;20044;-62
2023/05/18 08:01:57;;;;;;;11.98;4.10;;;12.40;1.00;;;;;;5048768;28;21048;-63
2023/05/18 08:04:23;;;;;;;10.02;3.72;;;12.00;99.90;;;;;;5049208;28;20052;-62
2023/05/18 08:06:49;;;;;;;12.52;4.00;;;12.00;99.90;;;;;;5044064;28;20116;-63
2023/05/18 08:09:15;;;;;;;10.52;3.35;;;12.30;1.00;;;;;;5049238;28;20494;-62
2023/05/18 08:11:42;;;;;;;13.55;4.20;;;12.60;1.00;;;;;;5046332;28;20613;-62
2023/05/18 08:14:07;;;;;;;9.82;3.70;;;12.40;99.90;;;;;;5043746;28;20039;-62
2023/05/18 08:16:36;;;;;;;9.95;3.80;;;12.70;99.90;;;;;;5049719;28;20041;-63
2023/05/18 08:19:02;;;;;;;10.63;3.13;;;12.80;1.00;;;;;;5050278;28;20043;-62
2023/05/18 08:21:29;;;;;;;13.70;3.58;;;12.20;1.00;;;;;;5045963;28;20037;-62
2023/05/18 08:23:55;;;;;;;13.27;3.70;;;12.30;99.90;;;;;;5042469;28;20029;-62
2023/05/18 08:26:21;;;;;;;11.63;3.75;;;12.60;28.10;;;;;;5043783;28;20095;-62
2023/05/18 08:28:47;;;;;;;14.15;4.10;;;12.50;1.00;;;;;;5050312;28;20541;-62
2023/05/18 08:31:14;;;;;;;14.05;3.22;;;12.50;1.00;;;;;;5044714;28;20316;-62
2023/05/18 08:33:40;;;;;;;7.78;3.10;;;12.40;1.00;;;;;;5052873;28;20052;-62
2023/05/18 08:36:07;;;;;;;11.70;3.22;;;12.50;99.90;;;;;;5048353;28;20605;-62
2023/05/18 08:38:33;;;;;;;11.50;3.67;;;12.90;95.50;;;;;;5047072;28;20036;-64
2023/05/18 08:41:19;;;;;;;11.35;3.28;;;12.70;99.90;;;;;;5049753;28;20384;-62
2023/05/18 08:43:47;;;;;;;13.52;3.80;;;12.70;99.90;;;;;;5049735;28;20027;-62
2023/05/18 08:46:25;;;;;;;13.05;3.47;;;13.00;99.90;;;;;;5045266;28;20170;-62
2023/05/18 08:48:52;;;;;;;10.85;3.17;;;13.30;99.90;;;;;;5047787;28;20024;-62
2023/05/18 08:51:19;;;;;;;10.90;3.90;;;13.10;1.00;;;;;;5043663;28;20037;-62
2023/05/18 08:53:51;;;;;;;10.48;3.75;;;12.50;1.00;;;;;;5054826;28;20028;-62
2023/05/18 08:56:20;;;;;;;12.25;3.53;;;12.80;1.00;;;;;;5040463;28;20045;-62
2023/05/18 08:58:49;;;;;;;15.82;3.58;;;13.20;1.00;;;;;;5049221;28;20036;-62
2023/05/18 09:01:16;;;;;;;13.40;3.72;;;13.30;1.00;;;;;;5035777;28;20071;-62
2023/05/18 09:03:43;;;;;;;11.43;3.60;;;13.60;99.90;;;;;;5045865;28;20138;-63
2023/05/18 09:06:09;;;;;;;10.57;3.35;;;13.60;1.00;;;;;;5050103;28;20140;-62
2023/05/18 09:08:35;;;;;;;9.73;3.20;;;13.60;99.90;;;;;;5041033;28;20025;-62
2023/05/18 09:11:02;;;;;;;9.32;3.40;;;13.10;99.90;;;;;;5051979;28;20029;-62
2023/05/18 09:13:28;;;;;;;10.25;3.72;;;13.20;52.90;;;;;;5044051;28;20183;-63
2023/05/18 09:15:54;;;;;;;11.32;3.83;;;13.00;99.90;;;;;;5044085;28;20080;-62
2023/05/18 09:18:20;;;;;;;9.15;3.50;;;13.20;99.90;;;;;;5038190;28;20518;-62
2023/05/18 09:20:45;;;;;;;9.27;3.53;;;13.40;99.90;;;;;;5045689;28;20028;-62
2023/05/18 09:23:11;;;;;;;10.52;3.75;;;13.20;99.90;;;;;;5041606;28;20350;-62
2023/05/18 09:25:43;;;;;;;11.55;3.78;;;13.50;99.90;;;;;;5047762;28;20029;-63
2023/05/18 09:28:10;;;;;;;9.75;3.30;;;14.00;64.00;;;;;;5047333;28;20032;-62
2023/05/18 09:30:40;;;;;;;14.23;3.60;;;14.30;1.00;;;;;;5051475;28;20029;-62
2023/05/18 09:33:15;;;;;;;10.57;3.92;;;14.40;29.80;;;;;;5043776;28;20036;-61
2023/05/18 09:35:42;;;;;;;13.20;4.38;;;14.00;99.90;;;;;;5048738;28;20040;-62
2023/05/18 09:38:08;;;;;;;12.95;4.40;;;13.90;1.00;;;;;;5051414;28;20255;-61
2023/05/18 09:40:33;;;;;;;11.95;4.43;;;14.10;99.90;;;;;;5048697;28;20045;-62
2023/05/18 09:43:06;;;;;;;10.00;3.60;;;14.40;99.90;;;;;;5050774;28;20040;-63
2023/05/18 09:45:31;;;;;;;9.95;3.17;;;14.30;1.00;;;;;;5047324;28;20776;-62
2023/05/18 09:47:57;;;;;;;11.65;4.15;;;14.40;99.90;;;;;;5049227;28;20032;-62
2023/05/18 09:50:23;;;;;;;13.13;3.90;;;14.70;99.90;;;;;;5046790;28;20048;-62
2023/05/18 09:52:50;;;;;;;13.15;3.95;;;14.70;99.90;;;;;;5053830;28;20064;-63
2023/05/18 09:55:16;;;;;;;11.60;4.70;;;14.20;1.00;;;;;;5048258;28;20067;-62
2023/05/18 09:57:44;;;;;;;10.65;3.80;;;14.00;1.00;;;;;;5053085;28;20097;-62
2023/05/18 10:00:11;;;;;;;12.50;4.00;;;14.40;99.90;;;;;;5046268;28;20461;-62
2023/05/18 10:02:39;;;;;;;8.93;3.40;;;14.50;99.90;;;;;;5049170;28;20047;-62
2023/05/18 10:05:05;;;;;;;10.52;3.80;;;14.60;99.90;;;;;;5046489;28;20037;-62
2023/05/18 10:07:34;;;;;;;13.60;4.00;;;14.60;1.00;;;;;;5048748;28;20063;-62
2023/05/18 10:10:02;;;;;;;13.90;4.03;;;14.50;99.90;;;;;;5048386;28;20040;-62
2023/05/18 10:12:28;;;;;;;10.75;3.70;;;14.70;99.90;;;;;;5050802;28;20496;-62
2023/05/18 10:14:54;;;;;;;12.82;3.90;;;14.50;1.00;;;;;;5048185;28;20040;-62
2023/05/18 10:17:21;;;;;;;13.82;4.55;;;14.50;99.90;;;;;;5050909;28;20052;-63
2023/05/18 10:19:52;;;;;;;12.32;4.00;;;14.80;99.90;;;;;;5050594;28;20048;-62
2023/05/18 10:22:22;;;;;;;9.05;3.80;;;15.00;99.90;;;;;;5043080;28;20029;-62
2023/05/18 10:24:53;;;;;;;15.77;4.20;;;14.60;99.90;;;;;;5039347;28;20052;-63
2023/05/18 10:27:25;;;;;;;10.82;4.18;;;14.50;4.40;;;;;;5052651;28;20290;-62
2023/05/18 10:29:53;;;;;;;8.00;3.78;;;14.60;99.90;;;;;;5053109;28;20041;-63
2023/05/18 10:32:21;;;;;;;8.27;3.35;;;14.00;99.90;;;;;;5059462;28;20075;-62
2023/05/18 10:34:48;;;;;;;14.55;3.95;;;14.30;99.90;;;;;;5061473;28;20037;-62
2023/05/18 10:37:16;;;;;;;11.43;4.28;;;14.50;1.00;;;;;;5058855;28;20056;-62
2023/05/18 10:39:44;;;;;;;12.02;4.47;;;14.30;99.90;;;;;;5051608;28;20037;-62
2023/05/18 10:42:10;;;;;;;11.02;4.88;;;14.40;1.00;;;;;;5060749;28;20040;-62
2023/05/18 10:44:38;;;;;;;11.98;4.43;;;14.30;1.00;;;;;;5056386;28;20041;-64
2023/05/18 10:47:10;;;;;;;11.82;4.40;;;14.60;1.00;;;;;;5035455;28;20606;-63
2023/05/18 10:49:36;;;;;;;13.27;5.50;;;14.90;1.00;;;;;;5056089;28;21462;-63
2023/05/18 10:52:03;;;;;;;9.98;3.80;;;15.10;99.90;;;;;;5050154;28;20142;-62
2023/05/18 10:54:29;;;;;;;9.52;3.70;;;15.30;99.90;;;;;;5051443;28;20112;-63
2023/05/18 10:56:55;;;;;;;12.65;4.43;;;15.40;1.00;;;;;;5053139;28;20025;-62
2023/05/18 10:59:24;;;;;;;13.18;4.28;;;15.10;1.00;;;;;;5053397;28;20029;-62
2023/05/18 11:01:52;;;;;;;11.60;4.38;;;14.90;1.00;;;;;;5054127;28;20707;-63
2023/05/18 11:04:28;;;;;;;9.05;3.58;;;14.60;1.00;;;;;;5060382;28;20029;-63
2023/05/18 11:07:00;;;;;;;10.20;4.07;;;14.80;99.90;;;;;;5055400;28;20048;-64
2023/05/18 11:09:28;;;;;;;10.45;4.10;;;14.80;71.90;;;;;;5052756;28;20068;-62
2023/05/18 11:11:56;;;;;;;13.43;3.97;;;14.80;1.00;;;;;;5058869;28;20605;-62
2023/05/18 11:14:31;;;;;;;12.80;6.75;;;14.90;1.00;;;;;;5051338;28;20504;-62
2023/05/18 11:17:17;;;;;;;13.13;4.43;;;15.20;1.00;;;;;;5052305;28;20025;-62
2023/05/18 11:20:07;;;;;;;11.27;3.70;;;15.30;1.00;;;;;;5052408;28;20056;-62
2023/05/18 11:22:48;;;;;;;12.20;3.60;;;15.20;99.90;;;;;;5054949;28;20111;-62
2023/05/18 11:25:23;;;;;;;12.27;3.80;;;15.00;1.00;;;;;;5050679;28;20021;-63
2023/05/18 11:27:49;;;;;;;11.93;3.85;;;14.90;99.90;;;;;;5054146;28;20024;-63
2023/05/18 11:30:33;;;;;;;8.95;4.07;;;15.20;59.90;;;;;;5053921;28;20044;-62
2023/05/18 11:33:12;;;;;;;10.48;3.58;;;14.70;1.00;;;;;;5054208;28;20048;-62
2023/05/18 11:35:54;;;;;;;9.65;3.38;;;14.70;99.90;;;;;;5056015;28;20024;-62
2023/05/18 11:38:21;;;;;;;8.15;3.72;;;14.70;1.00;;;;;;5056856;28;20056;-62
2023/05/18 11:40:48;;;;;;;9.45;3.58;;;14.40;1.00;;;;;;5055016;28;20392;-62
2023/05/18 11:43:23;;;;;;;9.65;3.08;;;14.80;1.00;;;;;;5054195;28;20036;-62
2023/05/18 11:45:57;;;;;;;12.30;3.60;;;15.10;86.30;;;;;;5050834;28;20029;-63
2023/05/18 11:48:24;;;;;;;13.18;3.80;;;15.30;56.90;;;;;;5056747;28;20510;-62
2023/05/18 11:50:56;;;;;;;11.13;3.70;;;15.30;1.00;;;;;;5055308;28;20036;-62
2023/05/18 11:53:26;;;;;;;9.40;3.90;;;15.50;23.30;;;;;;5059634;28;20553;-62
2023/05/18 11:55:55;;;;;;;8.68;3.33;;;15.40;1.00;;;;;;5053090;28;20683;-62
2023/05/18 11:58:25;;;;;;;11.02;3.55;;;15.20;1.00;;;;;;5051474;28;20041;-62
2023/05/18 12:00:51;;;;;;;15.75;3.53;;;15.30;99.90;;;;;;5058756;28;20068;-62
2023/05/18 12:03:22;;;;;;;11.55;3.83;;;15.00;99.90;;;;;;5052100;28;20044;-63
2023/05/18 12:05:48;;;;;;;17.75;3.92;;;14.80;1.00;;;;;;5054741;28;20544;-62
2023/05/18 12:08:18;;;;;;;9.38;3.22;;;14.80;1.00;;;;;;5054475;28;20032;-62
2023/05/18 12:10:48;;;;;;;11.50;3.35;;;14.90;12.10;;;;;;5053209;28;20033;-62
2023/05/18 12:13:16;;;;;;;9.07;3.60;;;15.00;1.00;;;;;;5056428;28;20079;-62
2023/05/18 12:15:42;;;;;;;8.43;3.22;;;14.90;99.90;;;;;;5050544;28;20040;-65
2023/05/18 12:18:09;;;;;;;7.20;3.10;;;14.90;99.90;;;;;;5047459;28;20488;-62
2023/05/18 12:20:38;;;;;;;11.60;3.78;;;15.00;99.90;;;;;;5049453;28;20040;-63
2023/05/18 12:23:04;;;;;;;10.70;3.78;;;14.90;99.90;;;;;;5050797;28;20115;-62
2023/05/18 12:25:30;;;;;;;10.40;3.58;;;15.30;1.00;;;;;;5054997;28;20032;-63
2023/05/18 12:27:55;;;;;;;11.93;3.30;;;15.40;1.00;;;;;;5055919;28;20044;-63
2023/05/18 12:30:33;;;;;;;11.98;2.97;;;15.40;1.00;;;;;;5054615;28;20278;-63
2023/05/18 12:33:00;;;;;;;8.23;2.80;;;15.40;99.90;;;;;;5049678;28;20037;-63
2023/05/18 12:35:27;;;;;;;10.35;3.53;;;15.20;1.00;;;;;;5052646;28;20580;-63
2023/05/18 12:37:54;;;;;;;10.77;3.50;;;15.30;99.90;;;;;;5049678;28;20483;-63
2023/05/18 12:40:21;;;;;;;8.45;3.40;;;15.50;1.00;;;;;;5048675;28;20041;-63
2023/05/18 12:42:59;;;;;;;12.25;3.15;;;15.30;99.90;;;;;;5053642;28;20448;-63
2023/05/18 12:45:26;;;;;;;10.05;3.28;;;15.50;92.80;;;;;;5047250;28;20127;-63
2023/05/18 12:47:54;;;;;;;9.50;3.30;;;15.70;99.90;;;;;;5052795;28;20064;-63
2023/05/18 12:50:27;;;;;;;8.90;3.40;;;15.50;99.90;;;;;;5051662;28;20033;-67